Time;durP1;ratioP1;P1;durP2;ratioP2;P2;SDS_P1;SDS_P2;PMS_P1;PMS_P2;Temp;Humidity;BMP_temperature;BMP_pressure;BME280_temperature;BME280_humidity;BME280_pressure;Samples;Min_cycle;Max_cycle;Signal;HPM_P1;HPM_P2
2023/10/12 00:01:59;;;;;;;9.90;4.78;;;19.30;99.90;;;;;;5129786;27;20254;-80
2023/10/12 00:04:35;;;;;;;9.75;5.03;;;19.30;99.90;;;;;;5136510;27;20204;-81
2023/10/12 00:07:09;;;;;;;11.60;4.88;;;19.30;99.90;;;;;;5137362;27;20686;-81
2023/10/12 00:09:37;;;;;;;10.35;4.63;;;19.20;99.90;;;;;;5135435;27;20220;-80
2023/10/12 00:12:08;;;;;;;13.73;4.45;;;19.20;99.90;;;;;;5130504;27;20207;-80
2023/10/12 00:14:36;;;;;;;14.00;5.22;;;19.20;99.90;;;;;;5137157;27;20211;-80
2023/10/12 00:17:05;;;;;;;12.15;4.45;;;19.20;99.90;;;;;;5136616;27;20562;-80
2023/10/12 00:19:32;;;;;;;9.50;4.97;;;19.20;99.90;;;;;;5137038;27;20292;-81
2023/10/12 00:22:00;;;;;;;8.82;4.43;;;19.20;99.90;;;;;;5135680;27;20672;-80
2023/10/12 00:24:27;;;;;;;9.65;4.35;;;19.10;99.90;;;;;;5131332;27;20200;-80
2023/10/12 00:26:57;;;;;;;9.85;4.70;;;19.10;99.90;;;;;;5134469;27;20207;-80
2023/10/12 00:29:24;;;;;;;10.80;4.40;;;19.00;99.90;;;;;;5133884;27;20762;-80
2023/10/12 00:31:52;;;;;;;16.08;4.88;;;19.00;99.90;;;;;;5132761;27;20196;-80
2023/10/12 00:34:23;;;;;;;11.82;5.10;;;19.00;99.90;;;;;;5136051;27;20200;-80
2023/10/12 00:36:53;;;;;;;12.43;4.72;;;18.90;99.90;;;;;;5135553;27;20696;-79
2023/10/12 00:39:27;;;;;;;10.43;4.85;;;18.90;99.90;;;;;;5136766;27;20221;-79
2023/10/12 00:41:55;;;;;;;9.98;4.68;;;18.80;99.90;;;;;;5136108;27;20199;-80
2023/10/12 00:44:26;;;;;;;7.90;4.43;;;18.70;99.90;;;;;;5132474;27;20253;-80
2023/10/12 00:47:07;;;;;;;13.90;5.10;;;18.80;99.90;;;;;;5134780;27;20585;-81
2023/10/12 00:49:39;;;;;;;8.00;3.95;;;18.80;99.90;;;;;;5136163;27;20216;-80
2023/10/12 00:52:15;;;;;;;9.23;4.65;;;18.80;99.90;;;;;;5132813;27;20197;-81
2023/10/12 00:54:49;;;;;;;10.23;4.43;;;18.70;99.90;;;;;;5136420;27;20212;-81
2023/10/12 00:57:17;;;;;;;10.35;5.05;;;18.80;99.90;;;;;;5134871;27;20208;-80
2023/10/12 00:59:46;;;;;;;10.32;4.60;;;18.70;99.90;;;;;;5133491;27;20224;-80
2023/10/12 01:02:16;;;;;;;10.70;4.80;;;18.70;99.90;;;;;;5135330;27;20218;-81
2023/10/12 01:04:43;;;;;;;15.93;5.53;;;18.70;99.90;;;;;;5133342;27;20211;-80
2023/10/12 01:07:19;;;;;;;13.43;5.40;;;18.70;99.90;;;;;;5128069;27;20205;-80
2023/10/12 01:09:47;;;;;;;13.00;5.10;;;18.80;99.90;;;;;;5129263;27;20223;-80
2023/10/12 01:12:14;;;;;;;11.68;5.22;;;18.70;99.90;;;;;;5130803;27;20291;-80
2023/10/12 01:14:44;;;;;;;13.07;4.95;;;18.70;99.90;;;;;;5130429;27;20204;-80
2023/10/12 01:17:20;;;;;;;16.63;5.25;;;18.60;99.90;;;;;;5133031;27;20296;-81
2023/10/12 01:19:46;;;;;;;13.73;5.25;;;18.60;99.90;;;;;;5125193;27;20245;-81
2023/10/12 01:22:15;;;;;;;11.82;5.05;;;18.50;99.90;;;;;;5132368;27;20284;-81
2023/10/12 01:24:57;;;;;;;12.60;5.65;;;18.50;99.90;;;;;;5130213;27;20257;-80
2023/10/12 01:27:25;;;;;;;7.45;5.03;;;18.40;99.90;;;;;;5128468;27;20235;-81
2023/10/12 01:29:53;;;;;;;10.82;5.00;;;18.40;99.90;;;;;;5123003;27;20216;-81
2023/10/12 01:32:27;;;;;;;11.32;6.00;;;18.40;99.90;;;;;;5133041;27;20287;-80
2023/10/12 01:34:57;;;;;;;15.57;6.18;;;18.30;99.90;;;;;;5133660;27;20223;-81
2023/10/12 01:37:26;;;;;;;14.05;5.63;;;18.20;99.90;;;;;;5130768;27;20231;-81
2023/10/12 01:40:10;;;;;;;13.50;5.63;;;18.10;99.90;;;;;;5133980;27;20678;-80
2023/10/12 01:42:43;;;;;;;11.40;5.47;;;18.10;99.90;;;;;;5135613;27;20288;-81
2023/10/12 01:45:18;;;;;;;10.70;6.00;;;18.10;99.90;;;;;;5135447;27;20219;-81
2023/10/12 01:47:50;;;;;;;9.75;5.63;;;18.00;99.90;;;;;;5134922;27;20214;-80
2023/10/12 01:50:17;;;;;;;9.65;5.15;;;18.00;99.90;;;;;;5127022;27;20590;-81
2023/10/12 01:52:47;;;;;;;10.20;5.78;;;18.00;99.90;;;;;;5130811;27;20228;-79
2023/10/12 01:55:18;;;;;;;11.38;5.75;;;18.00;99.90;;;;;;5129910;27;20208;-81
2023/10/12 01:57:52;;;;;;;11.38;5.43;;;17.90;99.90;;;;;;5134873;27;20200;-80
2023/10/12 02:00:24;;;;;;;11.90;5.80;;;17.90;99.90;;;;;;5129955;28;20216;-80
2023/10/12 02:03:00;;;;;;;10.70;6.00;;;17.90;99.90;;;;;;5134523;28;20290;-81
2023/10/12 02:05:30;;;;;;;11.40;5.65;;;17.90;99.90;;;;;;5133903;28;20200;-80
2023/10/12 02:08:05;;;;;;;12.20;6.50;;;17.80;99.90;;;;;;5133928;28;20192;-79
2023/10/12 02:10:41;;;;;;;14.70;6.38;;;17.70;99.90;;;;;;5132121;28;20203;-80
2023/10/12 02:13:10;;;;;;;17.38;7.35;;;17.60;99.90;;;;;;5132970;28;20614;-80
2023/10/12 02:15:38;;;;;;;14.27;7.07;;;17.50;99.90;;;;;;5130272;28;20574;-81
2023/10/12 02:18:10;;;;;;;15.35;7.78;;;17.40;99.90;;;;;;5133940;28;20200;-80
2023/10/12 02:20:48;;;;;;;14.57;7.90;;;17.30;99.90;;;;;;5130744;27;20315;-80
2023/10/12 02:23:21;;;;;;;11.45;7.05;;;17.20;99.90;;;;;;5140168;27;20291;-80
2023/10/12 02:25:53;;;;;;;18.02;8.75;;;17.10;99.90;;;;;;5139928;27;20211;-79
2023/10/12 02:28:22;;;;;;;16.85;8.75;;;17.00;99.90;;;;;;5131773;27;20422;-80
2023/10/12 02:30:54;;;;;;;15.82;8.27;;;16.90;99.90;;;;;;5139285;27;20197;-80
2023/10/12 02:33:27;;;;;;;15.55;8.75;;;16.90;99.90;;;;;;5137936;27;20238;-80
2023/10/12 02:35:54;;;;;;;16.05;9.02;;;16.90;99.90;;;;;;5138920;27;20487;-81
2023/10/12 02:38:27;;;;;;;19.05;8.90;;;16.80;99.90;;;;;;5128369;27;20311;-79
2023/10/12 02:40:58;;;;;;;18.13;9.63;;;16.80;99.90;;;;;;5135579;27;20223;-80
2023/10/12 02:43:27;;;;;;;18.20;8.75;;;16.70;99.90;;;;;;5130119;27;20200;-80
2023/10/12 02:45:59;;;;;;;15.18;8.13;;;16.60;99.90;;;;;;5138199;27;20200;-81
2023/10/12 02:48:29;;;;;;;12.80;7.90;;;16.40;99.90;;;;;;5137893;27;20728;-80
2023/10/12 02:51:01;;;;;;;14.00;7.47;;;16.40;99.90;;;;;;5129900;27;20201;-81
2023/10/12 02:53:30;;;;;;;11.98;7.93;;;16.40;99.90;;;;;;5132610;27;20208;-80
2023/10/12 02:56:00;;;;;;;17.92;7.93;;;16.20;99.90;;;;;;5131465;27;20231;-80
2023/10/12 02:58:27;;;;;;;15.18;7.70;;;16.10;99.90;;;;;;5129914;27;20312;-80
2023/10/12 03:00:58;;;;;;;13.57;8.05;;;16.00;99.90;;;;;;5137710;27;20254;-81
2023/10/12 03:03:33;;;;;;;12.80;7.57;;;16.00;99.90;;;;;;5123087;27;20203;-80
2023/10/12 03:06:07;;;;;;;18.52;8.30;;;16.00;99.90;;;;;;5134940;27;20213;-81
2023/10/12 03:08:46;;;;;;;17.02;8.38;;;15.80;99.90;;;;;;5123525;27;20231;-81
2023/10/12 03:11:15;;;;;;;14.90;8.35;;;15.80;99.90;;;;;;5138116;27;20677;-80
2023/10/12 03:13:54;;;;;;;15.57;8.95;;;15.80;99.90;;;;;;5130028;27;20201;-79
2023/10/12 03:16:22;;;;;;;11.80;8.30;;;15.80;99.90;;;;;;5129199;27;20239;-80
2023/10/12 03:18:58;;;;;;;16.95;9.60;;;15.70;99.90;;;;;;5135846;27;20274;-81
2023/10/12 03:21:27;;;;;;;17.23;9.35;;;15.70;99.90;;;;;;5100764;28;20693;-82
2023/10/12 03:23:57;;;;;;;18.27;10.07;;;15.70;99.90;;;;;;5135923;27;20233;-81
2023/10/12 03:26:25;;;;;;;20.50;12.52;;;15.70;99.90;;;;;;5131647;27;20201;-80
2023/10/12 03:28:53;;;;;;;15.48;9.35;;;15.60;99.90;;;;;;5135250;27;20227;-80
2023/10/12 03:31:23;;;;;;;15.88;9.50;;;15.60;99.90;;;;;;5137362;27;20207;-81
2023/10/12 03:33:57;;;;;;;18.35;10.50;;;15.70;99.90;;;;;;5135821;27;20678;-81
2023/10/12 03:36:25;;;;;;;18.05;10.20;;;15.70;99.90;;;;;;5132481;27;20208;-81
2023/10/12 03:39:13;;;;;;;18.63;11.02;;;15.60;99.90;;;;;;5126229;27;20611;-81
2023/10/12 03:44:51;;;;;;;18.98;10.57;;;15.50;99.90;;;;;;5046291;28;20195;-81
2023/10/12 03:47:24;;;;;;;19.48;10.95;;;15.50;99.90;;;;;;5115402;27;20204;-82
2023/10/12 03:50:05;;;;;;;17.92;11.40;;;15.40;99.90;;;;;;5135259;27;20303;-81
2023/10/12 03:52:39;;;;;;;17.45;9.45;;;15.40;99.90;;;;;;5132354;27;20204;-81
2023/10/12 03:55:24;;;;;;;13.60;7.57;;;15.30;99.90;;;;;;5134891;27;20282;-82
2023/10/12 03:58:00;;;;;;;15.57;8.38;;;15.30;99.90;;;;;;5138884;27;20211;-80
2023/10/12 04:00:32;;;;;;;13.30;7.57;;;15.20;99.90;;;;;;5137654;27;20306;-81
2023/10/12 04:03:05;;;;;;;14.10;7.00;;;15.20;99.90;;;;;;5132237;27;20486;-82
2023/10/12 04:05:50;;;;;;;12.35;6.65;;;15.10;99.90;;;;;;5132507;27;20620;-81
2023/10/12 04:14:09;;;;;;;11.45;7.22;;;15.10;99.90;;;;;;5132868;27;20202;-81
2023/10/12 04:16:40;;;;;;;14.38;7.53;;;14.90;99.90;;;;;;5134980;27;20574;-82
2023/10/12 04:19:07;;;;;;;11.85;6.88;;;15.00;99.90;;;;;;5132706;27;20216;-82
2023/10/12 04:21:35;;;;;;;15.75;7.38;;;14.90;99.90;;;;;;5135805;27;20227;-81
2023/10/12 04:26:44;;;;;;;14.13;7.57;;;14.80;99.90;;;;;;5136376;27;20195;-82
2023/10/12 04:29:21;;;;;;;12.18;7.20;;;14.80;99.90;;;;;;5136618;27;20300;-83
2023/10/12 04:31:49;;;;;;;13.23;6.90;;;14.80;99.90;;;;;;5137519;27;20207;-82
2023/10/12 04:34:20;;;;;;;13.25;7.00;;;14.80;99.90;;;;;;5125991;27;20730;-82
2023/10/12 04:36:48;;;;;;;11.05;7.00;;;14.90;99.90;;;;;;5137617;27;20196;-82
2023/10/12 04:39:23;;;;;;;13.40;7.22;;;14.60;99.90;;;;;;5131743;27;20307;-82
2023/10/12 04:42:03;;;;;;;13.15;7.63;;;14.80;99.90;;;;;;5136956;27;20206;-83
2023/10/12 04:44:43;;;;;;;15.48;7.22;;;14.80;99.90;;;;;;5130768;27;20200;-82
2023/10/12 04:47:13;;;;;;;13.85;8.05;;;14.80;99.90;;;;;;5138470;27;20286;-82
2023/10/12 04:49:54;;;;;;;13.57;7.35;;;14.80;99.90;;;;;;5129897;27;20217;-82
2023/10/12 04:52:32;;;;;;;12.60;7.32;;;14.90;99.90;;;;;;5135653;27;20260;-82
2023/10/12 04:55:06;;;;;;;13.55;7.68;;;14.90;99.90;;;;;;5136323;27;20230;-82
2023/10/12 04:57:34;;;;;;;14.20;7.07;;;14.80;99.90;;;;;;5126499;27;20689;-82
2023/10/12 05:00:10;;;;;;;12.07;7.57;;;14.80;99.90;;;;;;5128536;27;20368;-82
2023/10/12 05:02:54;;;;;;;14.00;7.35;;;14.80;99.90;;;;;;5130097;27;20200;-82
2023/10/12 05:08:07;;;;;;;13.48;7.38;;;14.70;99.90;;;;;;5134922;27;20329;-83
2023/10/12 05:10:46;;;;;;;13.40;7.22;;;14.80;99.90;;;;;;5136332;27;20241;-82
2023/10/12 05:13:19;;;;;;;14.98;7.00;;;14.80;99.90;;;;;;5136720;27;20196;-82
2023/10/12 05:15:54;;;;;;;11.90;7.00;;;14.80;99.90;;;;;;5136814;27;20658;-82
2023/10/12 05:18:22;;;;;;;14.38;7.40;;;14.80;99.90;;;;;;5135120;27;20219;-82
2023/10/12 05:20:49;;;;;;;13.57;7.43;;;14.70;99.90;;;;;;5135859;27;20216;-83
2023/10/12 05:23:17;;;;;;;14.15;7.30;;;14.70;99.90;;;;;;5127772;27;20202;-83
2023/10/12 05:25:53;;;;;;;12.38;6.85;;;14.70;99.90;;;;;;5135373;27;20189;-82
2023/10/12 05:28:21;;;;;;;11.90;7.32;;;14.70;99.90;;;;;;5129942;27;20228;-82
2023/10/12 05:30:51;;;;;;;13.60;7.10;;;14.70;99.90;;;;;;5136104;27;20220;-83
2023/10/12 05:33:38;;;;;;;12.48;6.65;;;14.70;99.90;;;;;;5136567;27;20200;-83
2023/10/12 05:36:08;;;;;;;13.13;7.57;;;14.60;99.90;;;;;;5134792;27;20204;-83
2023/10/12 05:38:36;;;;;;;13.43;8.55;;;14.80;99.90;;;;;;5128316;27;20308;-82
2023/10/12 05:41:04;;;;;;;12.98;7.82;;;14.80;99.90;;;;;;5133323;27;20220;-83
2023/10/12 05:43:33;;;;;;;12.95;7.55;;;14.80;99.90;;;;;;5135279;27;20223;-83
2023/10/12 05:46:04;;;;;;;15.82;8.43;;;14.90;99.90;;;;;;5135614;27;20224;-83
2023/10/12 05:48:34;;;;;;;16.58;9.10;;;14.80;99.90;;;;;;5135531;27;20219;-83
2023/10/12 05:51:01;;;;;;;13.05;8.07;;;14.80;99.90;;;;;;5133707;27;20216;-82
2023/10/12 05:53:28;;;;;;;14.07;8.15;;;14.90;99.90;;;;;;5129139;27;20206;-83
2023/10/12 05:55:57;;;;;;;14.32;8.90;;;15.00;99.90;;;;;;5135872;27;20235;-83
2023/10/12 05:58:24;;;;;;;12.95;8.30;;;14.90;99.90;;;;;;5136146;27;20280;-83
2023/10/12 06:00:52;;;;;;;15.20;8.23;;;14.90;99.90;;;;;;5129252;27;20239;-83
2023/10/12 06:03:21;;;;;;;11.20;7.63;;;15.10;99.90;;;;;;5134471;27;20192;-82
2023/10/12 06:05:48;;;;;;;11.07;7.43;;;14.90;99.90;;;;;;5133390;28;20197;-83
2023/10/12 06:08:18;;;;;;;12.82;7.65;;;14.90;99.90;;;;;;5133647;28;20261;-82
2023/10/12 06:10:45;;;;;;;11.07;6.90;;;15.10;99.90;;;;;;5134944;28;20249;-83
2023/10/12 06:13:14;;;;;;;11.73;6.25;;;15.00;99.90;;;;;;5132411;28;20204;-83
2023/10/12 06:15:42;;;;;;;8.02;5.85;;;15.00;99.90;;;;;;5133856;28;20196;-82
2023/10/12 06:18:21;;;;;;;10.70;6.28;;;15.10;99.90;;;;;;5135746;28;20283;-83
2023/10/12 06:20:58;;;;;;;11.18;5.88;;;15.10;99.90;;;;;;5135677;28;20215;-83
2023/10/12 06:23:25;;;;;;;8.98;5.63;;;15.10;99.90;;;;;;5131286;28;20849;-82
2023/10/12 06:25:51;;;;;;;10.32;5.97;;;15.10;99.90;;;;;;5134220;28;20207;-83
2023/10/12 06:28:18;;;;;;;11.20;5.45;;;15.20;99.90;;;;;;5135357;28;20223;-82
2023/10/12 06:30:45;;;;;;;8.93;5.85;;;15.20;99.90;;;;;;5136129;28;20221;-83
2023/10/12 06:33:15;;;;;;;8.82;5.60;;;15.20;99.90;;;;;;5134670;28;20244;-82
2023/10/12 06:38:39;;;;;;;9.38;5.20;;;15.20;99.90;;;;;;5086512;28;20564;-81
2023/10/12 06:44:22;;;;;;;7.35;5.18;;;15.20;99.90;;;;;;5075490;28;20426;-81
2023/10/12 06:46:48;;;;;;;9.02;5.18;;;15.20;99.90;;;;;;5073720;28;20195;-81
2023/10/12 06:49:18;;;;;;;9.13;5.60;;;15.20;99.90;;;;;;5072721;28;20220;-81
2023/10/12 06:51:53;;;;;;;10.30;5.25;;;15.30;99.90;;;;;;5072777;28;20233;-81
2023/10/12 06:54:31;;;;;;;11.50;5.53;;;15.20;99.90;;;;;;5074632;28;20206;-81
2023/10/12 06:57:29;;;;;;;7.00;5.20;;;15.30;99.90;;;;;;5077222;28;20218;-83
2023/10/12 07:00:17;;;;;;;6.40;4.60;;;15.30;99.90;;;;;;5081232;28;20222;-82
2023/10/12 07:02:44;;;;;;;7.88;5.13;;;15.20;99.90;;;;;;5070576;28;20234;-82
2023/10/12 07:05:11;;;;;;;8.15;5.00;;;15.30;99.90;;;;;;5073667;28;20202;-81
2023/10/12 07:07:41;;;;;;;8.63;5.22;;;15.20;99.90;;;;;;5071571;28;20209;-82
2023/10/12 07:10:23;;;;;;;7.50;4.50;;;15.10;99.90;;;;;;5071124;28;20257;-82
2023/10/12 07:12:50;;;;;;;3.45;2.90;;;14.70;99.90;;;;;;5072368;28;20265;-82
2023/10/12 07:15:21;;;;;;;3.58;2.88;;;14.40;99.90;;;;;;5071986;28;20203;-83
2023/10/12 07:17:49;;;;;;;4.45;2.47;;;14.30;99.90;;;;;;5071038;28;20237;-82
2023/10/12 07:20:40;;;;;;;3.28;1.60;;;14.20;99.90;;;;;;5071083;28;20710;-83
2023/10/12 07:23:14;;;;;;;4.00;1.77;;;14.00;99.90;;;;;;5072134;28;20210;-82
2023/10/12 07:25:45;;;;;;;1.40;1.17;;;13.90;99.90;;;;;;5072469;28;20237;-82
2023/10/12 07:28:18;;;;;;;7.55;1.58;;;13.80;99.90;;;;;;5071338;28;20274;-81
2023/10/12 07:31:13;;;;;;;2.00;1.20;;;13.70;99.90;;;;;;5071349;28;20657;-82
2023/10/12 07:33:32;;;;;;;5.47;1.10;;;13.70;99.90;;;;;;5065379;28;20252;-81
2023/10/12 07:36:11;;;;;;;10.93;2.15;;;13.50;99.90;;;;;;5071329;28;20267;-81
2023/10/12 07:38:38;;;;;;;6.20;1.80;;;13.30;99.90;;;;;;5071580;28;20219;-84
2023/10/12 07:41:09;;;;;;;5.70;1.70;;;13.30;99.90;;;;;;5071153;28;20226;-82
2023/10/12 07:43:38;;;;;;;6.40;1.50;;;13.40;99.90;;;;;;5071333;28;20670;-82
2023/10/12 07:46:13;;;;;;;6.05;1.52;;;13.40;99.90;;;;;;5070212;28;20657;-82
2023/10/12 07:48:44;;;;;;;5.18;1.50;;;13.60;99.90;;;;;;5065329;28;20597;-82
2023/10/12 07:51:16;;;;;;;8.15;1.90;;;13.50;99.90;;;;;;5059894;28;20198;-81
2023/10/12 07:53:43;;;;;;;4.95;1.45;;;13.60;99.90;;;;;;5059695;28;20302;-82
2023/10/12 07:56:16;;;;;;;7.18;2.28;;;13.60;99.90;;;;;;5060900;28;20213;-83
2023/10/12 07:58:43;;;;;;;5.78;1.48;;;13.60;99.90;;;;;;5055938;28;20223;-82
2023/10/12 08:01:26;;;;;;;5.20;1.45;;;13.50;99.90;;;;;;5057312;28;20217;-82
2023/10/12 08:03:58;;;;;;;6.93;1.85;;;13.40;99.90;;;;;;5057423;28;20214;-82
2023/10/12 08:06:31;;;;;;;10.18;1.80;;;13.30;99.90;;;;;;5056446;28;20261;-82
2023/10/12 08:09:04;;;;;;;10.80;2.00;;;13.30;99.90;;;;;;5056382;28;20229;-82
2023/10/12 08:11:34;;;;;;;10.85;2.13;;;13.30;99.90;;;;;;5061597;28;20229;-82
2023/10/12 08:14:18;;;;;;;7.50;1.98;;;13.40;99.90;;;;;;5056730;28;20673;-82
2023/10/12 08:17:24;;;;;;;8.20;2.22;;;13.30;99.90;;;;;;5056774;28;20230;-83
2023/10/12 08:19:38;;;;;;;7.10;1.60;;;13.50;99.90;;;;;;5049457;28;20227;-83
2023/10/12 08:22:09;;;;;;;7.70;1.97;;;13.40;99.90;;;;;;5057165;28;20290;-82
2023/10/12 08:24:37;;;;;;;5.73;1.80;;;13.30;99.90;;;;;;5057633;28;20207;-83
2023/10/12 08:27:06;;;;;;;8.80;2.10;;;13.40;99.90;;;;;;5058110;28;20219;-82
2023/10/12 08:32:34;;;;;;;4.87;1.70;;;13.40;99.90;;;;;;5055719;28;20283;-83
2023/10/12 08:35:32;;;;;;;5.67;1.63;;;13.40;99.90;;;;;;5056822;28;20210;-82
2023/10/12 08:38:11;;;;;;;12.30;2.40;;;13.20;99.90;;;;;;5054090;28;20288;-82
2023/10/12 08:41:20;;;;;;;5.18;1.42;;;13.30;99.90;;;;;;5057237;28;20211;-82
2023/10/12 08:43:48;;;;;;;6.83;1.70;;;13.30;99.90;;;;;;5056718;28;20230;-82
2023/10/12 08:49:33;;;;;;;9.25;2.22;;;13.30;99.90;;;;;;5058039;28;20223;-82
2023/10/12 08:52:04;;;;;;;8.48;2.03;;;13.20;99.90;;;;;;5057115;28;20206;-82
2023/10/12 08:54:34;;;;;;;9.23;1.87;;;13.30;99.90;;;;;;5051186;28;20309;-83
2023/10/12 08:57:03;;;;;;;12.02;2.45;;;13.30;99.90;;;;;;5062269;28;20203;-83
2023/10/12 08:59:38;;;;;;;6.45;1.77;;;13.20;99.90;;;;;;5056226;28;20284;-82
2023/10/12 09:02:18;;;;;;;7.97;2.00;;;13.20;99.90;;;;;;5056371;28;20217;-82
2023/10/12 09:04:48;;;;;;;5.33;1.80;;;13.30;99.90;;;;;;5058130;28;20203;-82
2023/10/12 09:07:19;;;;;;;6.15;2.05;;;13.20;99.90;;;;;;5058290;28;20203;-82
2023/10/12 09:10:01;;;;;;;6.40;2.30;;;13.30;99.90;;;;;;5061645;28;20218;-82
2023/10/12 09:12:27;;;;;;;7.93;2.15;;;13.20;99.90;;;;;;5056978;28;20257;-82
2023/10/12 09:14:55;;;;;;;11.05;2.00;;;13.20;99.90;;;;;;5056929;28;20195;-82
2023/10/12 09:17:30;;;;;;;5.50;1.87;;;13.20;99.90;;;;;;5056760;28;20231;-82
2023/10/12 09:20:21;;;;;;;8.50;2.65;;;13.30;99.90;;;;;;5053623;28;20226;-82
2023/10/12 09:22:47;;;;;;;8.30;2.40;;;13.30;99.90;;;;;;5052249;28;20195;-82
2023/10/12 09:25:34;;;;;;;5.05;2.00;;;13.30;99.90;;;;;;5056502;28;20207;-82
2023/10/12 09:28:01;;;;;;;6.23;1.67;;;13.20;99.90;;;;;;5056064;28;20270;-82
2023/10/12 09:30:35;;;;;;;8.60;2.63;;;13.20;99.90;;;;;;5056139;28;20213;-82
2023/10/12 09:33:06;;;;;;;8.50;2.70;;;13.30;99.90;;;;;;5056431;28;20684;-82
2023/10/12 09:35:40;;;;;;;8.97;3.23;;;13.30;99.90;;;;;;5057284;28;20253;-82
2023/10/12 09:38:08;;;;;;;8.75;3.25;;;13.10;99.90;;;;;;5061702;28;20726;-82
2023/10/12 09:40:39;;;;;;;7.65;3.30;;;13.30;99.90;;;;;;5056028;28;20231;-82
2023/10/12 09:43:12;;;;;;;8.98;4.03;;;13.20;99.90;;;;;;5054996;28;20226;-82
2023/10/12 09:45:45;;;;;;;10.77;5.30;;;13.20;99.90;;;;;;5050635;28;20210;-82
2023/10/12 09:48:19;;;;;;;9.47;4.57;;;13.20;99.90;;;;;;5055427;28;20202;-82
2023/10/12 09:50:48;;;;;;;9.88;3.85;;;13.20;99.90;;;;;;5055923;28;20298;-82
2023/10/12 09:53:24;;;;;;;9.63;3.10;;;13.20;99.90;;;;;;5055260;28;20286;-84
2023/10/12 09:56:11;;;;;;;9.07;3.53;;;13.10;99.90;;;;;;5055367;28;20699;-83
2023/10/12 09:58:50;;;;;;;11.03;3.77;;;13.20;99.90;;;;;;5054689;28;20710;-82
2023/10/12 10:01:25;;;;;;;8.97;2.90;;;13.10;99.90;;;;;;5055723;28;20297;-82
2023/10/12 10:03:52;;;;;;;10.47;2.83;;;13.50;99.90;;;;;;5056379;28;20213;-82
2023/10/12 10:06:31;;;;;;;7.97;2.97;;;13.20;99.90;;;;;;5053662;28;20209;-82
2023/10/12 10:09:16;;;;;;;11.37;2.80;;;13.40;99.90;;;;;;5060398;28;20648;-82
2023/10/12 10:11:45;;;;;;;7.03;2.40;;;13.40;99.90;;;;;;5053698;28;20613;-83
2023/10/12 10:14:20;;;;;;;8.27;3.10;;;13.40;99.90;;;;;;5053731;28;20202;-82
2023/10/12 10:16:58;;;;;;;5.63;2.42;;;13.60;99.90;;;;;;5051074;28;20725;-82
2023/10/12 10:19:29;;;;;;;10.70;3.23;;;13.60;99.90;;;;;;5051666;28;20223;-82
2023/10/12 10:22:05;;;;;;;10.32;2.17;;;13.40;99.90;;;;;;5054732;28;20210;-81
2023/10/12 10:24:45;;;;;;;7.70;1.83;;;13.10;99.90;;;;;;5054930;28;20682;-83
2023/10/12 10:27:14;;;;;;;10.77;2.40;;;13.20;99.90;;;;;;5054549;28;20294;-82
2023/10/12 10:29:44;;;;;;;7.37;2.30;;;13.20;99.90;;;;;;5047541;28;20222;-82
2023/10/12 10:32:14;;;;;;;8.13;2.67;;;13.20;99.90;;;;;;5055233;28;20199;-82
2023/10/12 10:34:42;;;;;;;8.10;2.50;;;13.20;99.90;;;;;;5050775;28;20290;-84
2023/10/12 10:37:11;;;;;;;6.17;1.97;;;13.10;99.90;;;;;;5055246;28;20206;-84
2023/10/12 10:39:42;;;;;;;8.37;2.33;;;13.10;99.90;;;;;;5054421;28;20222;-83
2023/10/12 10:42:09;;;;;;;4.80;2.20;;;13.20;99.90;;;;;;5055773;28;20239;-83
2023/10/12 10:44:41;;;;;;;9.27;2.53;;;13.20;99.90;;;;;;5057436;28;20290;-84
2023/10/12 10:47:10;;;;;;;9.40;2.97;;;13.30;99.90;;;;;;5055888;28;20625;-83
2023/10/12 10:49:38;;;;;;;12.47;2.30;;;13.50;99.90;;;;;;5054958;28;20221;-84
2023/10/12 10:52:20;;;;;;;9.53;2.50;;;13.70;99.90;;;;;;5054327;28;20214;-84
2023/10/12 10:54:59;;;;;;;10.43;2.42;;;13.40;99.90;;;;;;5054743;28;20207;-84
2023/10/12 10:57:31;;;;;;;6.40;2.53;;;13.60;99.90;;;;;;5052349;28;20195;-84
2023/10/12 10:59:59;;;;;;;13.82;2.67;;;13.50;99.90;;;;;;5053278;28;20222;-83
2023/10/12 11:02:26;;;;;;;9.55;2.20;;;13.50;99.90;;;;;;5055818;28;20195;-83
2023/10/12 11:04:59;;;;;;;8.32;2.28;;;13.60;99.90;;;;;;5055118;28;20205;-84
2023/10/12 11:07:27;;;;;;;9.60;2.85;;;13.70;99.90;;;;;;5054991;28;20211;-84
2023/10/12 11:10:19;;;;;;;10.65;3.47;;;13.60;99.90;;;;;;5054437;28;20231;-83
2023/10/12 11:12:45;;;;;;;8.32;2.05;;;13.90;99.90;;;;;;5051026;28;20554;-83
2023/10/12 11:15:19;;;;;;;9.85;2.50;;;13.70;99.90;;;;;;5055593;28;20264;-83
2023/10/12 11:17:56;;;;;;;6.70;2.30;;;13.70;99.90;;;;;;5048869;28;20653;-83
2023/10/12 11:20:43;;;;;;;11.45;2.53;;;13.70;99.90;;;;;;5046210;28;20245;-84
2023/10/12 11:23:11;;;;;;;9.25;2.30;;;13.70;99.90;;;;;;5055381;28;20649;-83
2023/10/12 11:25:41;;;;;;;5.57;2.42;;;13.60;99.90;;;;;;5058465;28;20683;-83
2023/10/12 11:28:21;;;;;;;7.72;2.38;;;13.80;99.90;;;;;;5057899;28;20226;-81
2023/10/12 11:30:51;;;;;;;11.68;2.17;;;13.80;99.90;;;;;;5054199;28;20235;-83
2023/10/12 11:33:24;;;;;;;5.95;2.20;;;14.00;99.90;;;;;;5055540;28;20199;-83
2023/10/12 11:35:54;;;;;;;10.48;2.40;;;14.00;99.90;;;;;;5057869;28;20652;-83
2023/10/12 11:38:23;;;;;;;10.68;2.50;;;14.00;99.90;;;;;;5058234;28;20695;-83
2023/10/12 11:40:53;;;;;;;10.63;2.05;;;14.20;99.90;;;;;;5058218;28;20199;-83
2023/10/12 11:43:21;;;;;;;10.02;2.88;;;14.20;99.90;;;;;;5055041;28;20219;-83
2023/10/12 11:45:56;;;;;;;9.93;2.40;;;14.30;99.90;;;;;;5057698;28;20203;-82
2023/10/12 11:48:24;;;;;;;8.80;2.15;;;14.00;99.90;;;;;;5055359;28;20226;-83
2023/10/12 11:50:53;;;;;;;8.77;1.75;;;14.20;99.90;;;;;;5058357;28;20268;-83
2023/10/12 11:53:20;;;;;;;6.07;1.92;;;14.00;99.90;;;;;;5057799;28;20294;-82
2023/10/12 11:55:48;;;;;;;11.82;2.30;;;14.20;99.90;;;;;;5061738;28;20210;-83
2023/10/12 11:58:19;;;;;;;6.05;2.20;;;14.20;99.90;;;;;;5057066;28;20300;-83
2023/10/12 12:00:48;;;;;;;7.60;2.00;;;14.10;99.90;;;;;;5057265;28;20199;-83
2023/10/12 12:03:15;;;;;;;8.90;2.15;;;14.20;99.90;;;;;;5057894;28;20227;-83
2023/10/12 12:05:43;;;;;;;6.57;1.73;;;14.30;99.90;;;;;;5057091;28;20305;-83
2023/10/12 12:08:14;;;;;;;9.32;2.00;;;14.00;99.90;;;;;;5057233;28;20206;-83
2023/10/12 12:10:46;;;;;;;8.88;2.00;;;14.20;99.90;;;;;;5056112;28;20253;-82
2023/10/12 12:13:15;;;;;;;7.50;2.38;;;14.20;99.90;;;;;;5056704;28;20199;-83
2023/10/12 12:15:43;;;;;;;8.25;2.90;;;14.20;99.90;;;;;;5058842;28;20586;-83
2023/10/12 12:18:14;;;;;;;14.38;2.75;;;14.10;99.90;;;;;;5057840;28;20223;-83
2023/10/12 12:20:44;;;;;;;11.00;3.38;;;14.20;99.90;;;;;;5052577;28;20207;-82
2023/10/12 12:23:12;;;;;;;9.63;3.63;;;14.20;99.90;;;;;;5055289;28;20556;-82
2023/10/12 12:25:40;;;;;;;6.60;2.50;;;14.20;99.90;;;;;;5055231;28;20217;-83
2023/10/12 12:28:08;;;;;;;12.98;3.85;;;14.10;99.90;;;;;;5052509;28;20249;-82
2023/10/12 12:30:39;;;;;;;11.02;2.80;;;14.10;99.90;;;;;;5058513;28;20278;-83
2023/10/12 12:33:14;;;;;;;8.00;2.38;;;14.30;99.90;;;;;;5056087;28;20211;-82
2023/10/12 12:35:40;;;;;;;6.82;2.13;;;14.30;99.90;;;;;;5055473;28;20653;-83
2023/10/12 12:38:21;;;;;;;10.13;1.95;;;14.40;99.90;;;;;;5055253;28;20322;-82
2023/10/12 12:40:49;;;;;;;8.20;2.50;;;14.10;99.90;;;;;;5053511;28;20203;-83
2023/10/12 12:43:16;;;;;;;9.02;2.75;;;14.00;99.90;;;;;;5053413;28;20203;-83
2023/10/12 12:45:43;;;;;;;6.82;2.58;;;13.90;99.90;;;;;;5058863;28;20203;-84
2023/10/12 12:48:10;;;;;;;7.28;2.20;;;14.10;99.90;;;;;;5055290;28;20213;-83
2023/10/12 12:50:37;;;;;;;7.80;2.10;;;13.70;99.90;;;;;;5050899;28;20207;-83
2023/10/12 12:53:06;;;;;;;3.55;1.58;;;13.80;99.90;;;;;;5056560;28;20206;-82
2023/10/12 12:55:38;;;;;;;11.30;2.78;;;13.90;99.90;;;;;;5058656;28;20239;-83
2023/10/12 12:58:06;;;;;;;8.88;2.63;;;13.90;99.90;;;;;;5056403;28;20206;-82
2023/10/12 13:00:34;;;;;;;10.80;3.03;;;13.70;99.90;;;;;;5055419;28;20213;-83
2023/10/12 13:03:01;;;;;;;11.65;2.85;;;13.60;99.90;;;;;;5057579;28;20233;-83
2023/10/12 13:05:29;;;;;;;7.55;2.67;;;13.40;99.90;;;;;;5052096;28;20207;-82
2023/10/12 13:07:56;;;;;;;10.15;2.25;;;13.50;99.90;;;;;;5055835;28;20210;-83
2023/10/12 13:10:25;;;;;;;15.85;2.72;;;13.50;99.90;;;;;;5054936;28;20252;-82
2023/10/12 13:12:52;;;;;;;9.05;2.35;;;13.50;99.90;;;;;;5055342;28;20217;-83
2023/10/12 13:15:21;;;;;;;12.27;2.60;;;13.60;99.90;;;;;;5056485;28;20222;-83
2023/10/12 13:17:48;;;;;;;8.68;2.10;;;13.70;99.90;;;;;;5054552;28;20628;-82
2023/10/12 13:20:21;;;;;;;7.60;2.50;;;13.60;99.90;;;;;;5053876;28;20227;-82
2023/10/12 13:22:48;;;;;;;11.25;2.80;;;13.60;99.90;;;;;;5055101;28;20215;-83
2023/10/12 13:25:17;;;;;;;8.90;2.50;;;13.60;99.90;;;;;;5059521;28;20202;-82
2023/10/12 13:27:45;;;;;;;6.20;2.22;;;13.60;99.90;;;;;;5053809;28;20222;-82
2023/10/12 13:30:14;;;;;;;12.73;2.47;;;13.60;99.90;;;;;;5053701;28;20222;-83
2023/10/12 13:32:43;;;;;;;6.88;1.95;;;13.60;99.90;;;;;;5053995;28;20235;-83